sensor_id;sensor_type;location;lat;lon;timestamp;pressure;altitude;pressure_sealevel;temperature;humidity
76746;BME280;65671;49.976;20.038;2023-11-19T00:00:30;98403.16;;;1.93;100.00
76746;BME280;65671;49.976;20.038;2023-11-19T00:02:55;98393.16;;;1.60;100.00
76746;BME280;65671;49.976;20.038;2023-11-19T00:05:20;98392.94;;;1.95;100.00
76746;BME280;65671;49.976;20.038;2023-11-19T00:07:46;98387.38;;;1.79;100.00
76746;BME280;65671;49.976;20.038;2023-11-19T00:10:12;98390.31;;;1.86;100.00
76746;BME280;65671;49.976;20.038;2023-11-19T00:12:43;98385.63;;;1.83;100.00
76746;BME280;65671;49.976;20.038;2023-11-19T00:15:09;98383.88;;;1.87;100.00
76746;BME280;65671;49.976;20.038;2023-11-19T00:17:40;98385.63;;;2.04;100.00
76746;BME280;65671;49.976;20.038;2023-11-19T00:20:10;98384.09;;;2.03;100.00
76746;BME280;65671;49.976;20.038;2023-11-19T00:22:36;98382.38;;;2.19;100.00
76746;BME280;65671;49.976;20.038;2023-11-19T00:25:01;98376.38;;;2.22;100.00
76746;BME280;65671;49.976;20.038;2023-11-19T00:27:27;98372.16;;;2.21;100.00
76746;BME280;65671;49.976;20.038;2023-11-19T00:29:52;98376.78;;;2.12;100.00
76746;BME280;65671;49.976;20.038;2023-11-19T00:32:18;98373.91;;;2.17;100.00
76746;BME280;65671;49.976;20.038;2023-11-19T00:34:44;98367.59;;;2.01;100.00
76746;BME280;65671;49.976;20.038;2023-11-19T00:37:09;98358.09;;;2.12;100.00
76746;BME280;65671;49.976;20.038;2023-11-19T00:39:35;98362.84;;;2.06;100.00
76746;BME280;65671;49.976;20.038;2023-11-19T00:42:00;98358.75;;;2.09;100.00
76746;BME280;65671;49.976;20.038;2023-11-19T00:44:26;98348.00;;;2.17;100.00
76746;BME280;65671;49.976;20.038;2023-11-19T00:46:51;98340.28;;;2.16;100.00
76746;BME280;65671;49.976;20.038;2023-11-19T00:49:16;98341.22;;;2.20;100.00
76746;BME280;65671;49.976;20.038;2023-11-19T00:51:42;98331.69;;;2.10;100.00
76746;BME280;65671;49.976;20.038;2023-11-19T00:54:07;98331.38;;;2.12;100.00
76746;BME280;65671;49.976;20.038;2023-11-19T00:56:33;98322.44;;;2.08;100.00
76746;BME280;65671;49.976;20.038;2023-11-19T00:58:58;98329.59;;;2.16;100.00
76746;BME280;65671;49.976;20.038;2023-11-19T01:01:25;98321.53;;;2.04;100.00
76746;BME280;65671;49.976;20.038;2023-11-19T01:03:50;98319.56;;;2.13;100.00
76746;BME280;65671;49.976;20.038;2023-11-19T01:06:27;98320.00;;;2.03;100.00
76746;BME280;65671;49.976;20.038;2023-11-19T01:08:52;98317.31;;;2.03;100.00
76746;BME280;65671;49.976;20.038;2023-11-19T01:11:21;98309.03;;;1.96;100.00
76746;BME280;65671;49.976;20.038;2023-11-19T01:13:47;98308.72;;;2.18;100.00
76746;BME280;65671;49.976;20.038;2023-11-19T01:16:12;98310.63;;;1.97;100.00
76746;BME280;65671;49.976;20.038;2023-11-19T01:18:38;98305.22;;;1.85;100.00
76746;BME280;65671;49.976;20.038;2023-11-19T01:21:04;98303.00;;;1.87;100.00
76746;BME280;65671;49.976;20.038;2023-11-19T01:23:29;98309.88;;;2.08;100.00
76746;BME280;65671;49.976;20.038;2023-11-19T01:25:55;98307.53;;;2.07;100.00
76746;BME280;65671;49.976;20.038;2023-11-19T01:28:20;98310.81;;;1.92;100.00
76746;BME280;65671;49.976;20.038;2023-11-19T01:30:46;98311.91;;;1.91;100.00
76746;BME280;65671;49.976;20.038;2023-11-19T01:33:11;98309.69;;;1.93;100.00
76746;BME280;65671;49.976;20.038;2023-11-19T01:35:36;98318.69;;;1.88;100.00
76746;BME280;65671;49.976;20.038;2023-11-19T01:38:02;98299.81;;;1.93;100.00
76746;BME280;65671;49.976;20.038;2023-11-19T01:40:28;98305.19;;;2.05;100.00
76746;BME280;65671;49.976;20.038;2023-11-19T01:42:53;98301.50;;;1.98;100.00
76746;BME280;65671;49.976;20.038;2023-11-19T01:45:39;98298.28;;;2.04;100.00
76746;BME280;65671;49.976;20.038;2023-11-19T01:48:05;98300.78;;;2.09;100.00
76746;BME280;65671;49.976;20.038;2023-11-19T01:50:30;98303.69;;;1.96;100.00
76746;BME280;65671;49.976;20.038;2023-11-19T01:52:57;98296.41;;;2.05;100.00
76746;BME280;65671;49.976;20.038;2023-11-19T01:55:23;98288.53;;;1.88;100.00
76746;BME280;65671;49.976;20.038;2023-11-19T01:57:49;98278.13;;;1.95;100.00
76746;BME280;65671;49.976;20.038;2023-11-19T02:00:16;98280.16;;;1.98;100.00
76746;BME280;65671;49.976;20.038;2023-11-19T02:02:46;98279.28;;;2.06;100.00
76746;BME280;65671;49.976;20.038;2023-11-19T02:05:11;98263.72;;;1.87;100.00
76746;BME280;65671;49.976;20.038;2023-11-19T02:07:38;98256.94;;;1.90;100.00
76746;BME280;65671;49.976;20.038;2023-11-19T02:10:04;98259.69;;;1.81;100.00
76746;BME280;65671;49.976;20.038;2023-11-19T02:12:31;98261.44;;;1.98;100.00
76746;BME280;65671;49.976;20.038;2023-11-19T02:15:02;98259.78;;;2.05;100.00
76746;BME280;65671;49.976;20.038;2023-11-19T02:17:31;98260.84;;;1.92;100.00
76746;BME280;65671;49.976;20.038;2023-11-19T02:19:57;98248.97;;;2.02;100.00
76746;BME280;65671;49.976;20.038;2023-11-19T02:22:23;98253.34;;;2.06;100.00
76746;BME280;65671;49.976;20.038;2023-11-19T02:24:50;98249.13;;;2.05;100.00
76746;BME280;65671;49.976;20.038;2023-11-19T02:28:13;98243.38;;;1.83;100.00
76746;BME280;65671;49.976;20.038;2023-11-19T02:30:14;98232.06;;;1.98;100.00
76746;BME280;65671;49.976;20.038;2023-11-19T02:32:43;98221.31;;;2.06;100.00
76746;BME280;65671;49.976;20.038;2023-11-19T02:35:33;98205.47;;;2.01;100.00
76746;BME280;65671;49.976;20.038;2023-11-19T02:38:01;98194.22;;;1.96;100.00
76746;BME280;65671;49.976;20.038;2023-11-19T02:40:29;98181.34;;;1.65;100.00
76746;BME280;65671;49.976;20.038;2023-11-19T02:42:55;98180.09;;;1.62;100.00
76746;BME280;65671;49.976;20.038;2023-11-19T02:45:24;98177.28;;;1.80;100.00
76746;BME280;65671;49.976;20.038;2023-11-19T02:47:50;98175.78;;;1.70;100.00
76746;BME280;65671;49.976;20.038;2023-11-19T02:50:17;98166.75;;;1.95;100.00
76746;BME280;65671;49.976;20.038;2023-11-19T02:52:47;98166.25;;;1.81;100.00
76746;BME280;65671;49.976;20.038;2023-11-19T02:55:13;98163.69;;;1.73;100.00
76746;BME280;65671;49.976;20.038;2023-11-19T02:57:39;98168.84;;;1.90;100.00
76746;BME280;65671;49.976;20.038;2023-11-19T03:00:18;98163.50;;;1.90;100.00
76746;BME280;65671;49.976;20.038;2023-11-19T03:02:44;98168.66;;;1.95;100.00
76746;BME280;65671;49.976;20.038;2023-11-19T03:05:19;98153.47;;;1.87;100.00
76746;BME280;65671;49.976;20.038;2023-11-19T03:07:45;98144.81;;;1.90;100.00
76746;BME280;65671;49.976;20.038;2023-11-19T03:10:11;98135.06;;;1.61;100.00
76746;BME280;65671;49.976;20.038;2023-11-19T03:12:40;98122.47;;;1.49;100.00
76746;BME280;65671;49.976;20.038;2023-11-19T03:15:07;98108.16;;;1.33;100.00
76746;BME280;65671;49.976;20.038;2023-11-19T03:17:33;98111.84;;;1.29;100.00
76746;BME280;65671;49.976;20.038;2023-11-19T03:20:00;98109.88;;;1.38;100.00
76746;BME280;65671;49.976;20.038;2023-11-19T03:22:26;98109.13;;;1.49;100.00
76746;BME280;65671;49.976;20.038;2023-11-19T03:24:51;98105.41;;;1.75;100.00
76746;BME280;65671;49.976;20.038;2023-11-19T03:27:17;98099.38;;;1.53;100.00
76746;BME280;65671;49.976;20.038;2023-11-19T03:29:42;98098.84;;;1.39;100.00
76746;BME280;65671;49.976;20.038;2023-11-19T03:32:08;98094.06;;;1.33;100.00
76746;BME280;65671;49.976;20.038;2023-11-19T03:34:34;98094.22;;;1.48;100.00
76746;BME280;65671;49.976;20.038;2023-11-19T03:36:59;98086.47;;;1.55;100.00
76746;BME280;65671;49.976;20.038;2023-11-19T03:39:25;98083.22;;;1.50;100.00
76746;BME280;65671;49.976;20.038;2023-11-19T03:41:50;98088.88;;;1.48;100.00
76746;BME280;65671;49.976;20.038;2023-11-19T03:44:16;98091.69;;;1.52;100.00
76746;BME280;65671;49.976;20.038;2023-11-19T03:46:41;98094.03;;;1.53;100.00
76746;BME280;65671;49.976;20.038;2023-11-19T03:49:07;98083.34;;;1.65;100.00
76746;BME280;65671;49.976;20.038;2023-11-19T03:51:32;98081.34;;;1.50;100.00
76746;BME280;65671;49.976;20.038;2023-11-19T03:53:59;98066.63;;;1.32;100.00
76746;BME280;65671;49.976;20.038;2023-11-19T03:56:24;98064.84;;;1.36;100.00
76746;BME280;65671;49.976;20.038;2023-11-19T03:58:50;98044.97;;;1.46;100.00
76746;BME280;65671;49.976;20.038;2023-11-19T04:01:15;98042.09;;;1.39;100.00
76746;BME280;65671;49.976;20.038;2023-11-19T04:03:41;98039.09;;;1.52;100.00
76746;BME280;65671;49.976;20.038;2023-11-19T04:06:06;98041.56;;;1.69;100.00
76746;BME280;65671;49.976;20.038;2023-11-19T04:08:32;98028.66;;;1.72;100.00
76746;BME280;65671;49.976;20.038;2023-11-19T04:10:57;98025.50;;;1.45;100.00
76746;BME280;65671;49.976;20.038;2023-11-19T04:13:23;98029.91;;;1.62;100.00
76746;BME280;65671;49.976;20.038;2023-11-19T04:15:49;98037.56;;;1.63;100.00
76746;BME280;65671;49.976;20.038;2023-11-19T04:18:15;98034.31;;;1.58;100.00
76746;BME280;65671;49.976;20.038;2023-11-19T04:20:41;98024.31;;;1.55;100.00
76746;BME280;65671;49.976;20.038;2023-11-19T04:23:08;98012.94;;;1.46;100.00
76746;BME280;65671;49.976;20.038;2023-11-19T04:25:35;98016.75;;;1.57;100.00
76746;BME280;65671;49.976;20.038;2023-11-19T04:28:00;98006.19;;;1.60;100.00
76746;BME280;65671;49.976;20.038;2023-11-19T04:30:27;98006.88;;;1.69;100.00
76746;BME280;65671;49.976;20.038;2023-11-19T04:32:53;97999.28;;;1.59;100.00
76746;BME280;65671;49.976;20.038;2023-11-19T04:35:30;97994.75;;;1.84;100.00
76746;BME280;65671;49.976;20.038;2023-11-19T04:38:02;97993.66;;;1.97;100.00
76746;BME280;65671;49.976;20.038;2023-11-19T04:40:27;97988.97;;;1.82;100.00
76746;BME280;65671;49.976;20.038;2023-11-19T04:42:52;97991.41;;;1.75;100.00
76746;BME280;65671;49.976;20.038;2023-11-19T04:45:18;97986.63;;;1.44;100.00
76746;BME280;65671;49.976;20.038;2023-11-19T04:47:43;97976.53;;;1.62;100.00
76746;BME280;65671;49.976;20.038;2023-11-19T04:50:09;97969.28;;;1.50;100.00
76746;BME280;65671;49.976;20.038;2023-11-19T04:52:39;97969.19;;;1.59;100.00
76746;BME280;65671;49.976;20.038;2023-11-19T04:55:10;97953.69;;;1.40;100.00
76746;BME280;65671;49.976;20.038;2023-11-19T04:57:37;97961.16;;;1.47;100.00
76746;BME280;65671;49.976;20.038;2023-11-19T05:00:02;97956.28;;;1.61;100.00
76746;BME280;65671;49.976;20.038;2023-11-19T05:02:30;97943.25;;;1.72;100.00
76746;BME280;65671;49.976;20.038;2023-11-19T05:04:55;97953.47;;;1.57;100.00
76746;BME280;65671;49.976;20.038;2023-11-19T05:07:21;97960.59;;;1.78;100.00
76746;BME280;65671;49.976;20.038;2023-11-19T05:09:46;97951.03;;;1.40;100.00
76746;BME280;65671;49.976;20.038;2023-11-19T05:12:12;97963.19;;;1.62;100.00
76746;BME280;65671;49.976;20.038;2023-11-19T05:14:38;97957.94;;;1.53;100.00
76746;BME280;65671;49.976;20.038;2023-11-19T05:17:03;97956.28;;;1.61;100.00
76746;BME280;65671;49.976;20.038;2023-11-19T05:19:29;97950.47;;;1.83;100.00
76746;BME280;65671;49.976;20.038;2023-11-19T05:21:54;97954.72;;;1.72;100.00
76746;BME280;65671;49.976;20.038;2023-11-19T05:24:19;97952.69;;;1.45;100.00
76746;BME280;65671;49.976;20.038;2023-11-19T05:26:45;97958.16;;;1.60;100.00
76746;BME280;65671;49.976;20.038;2023-11-19T05:29:10;97956.94;;;1.70;100.00
76746;BME280;65671;49.976;20.038;2023-11-19T05:31:36;97954.38;;;1.49;100.00
76746;BME280;65671;49.976;20.038;2023-11-19T05:34:01;97952.38;;;1.46;100.00
76746;BME280;65671;49.976;20.038;2023-11-19T05:36:32;97954.47;;;1.41;100.00
76746;BME280;65671;49.976;20.038;2023-11-19T05:39:01;97952.13;;;1.39;100.00
76746;BME280;65671;49.976;20.038;2023-11-19T05:41:28;97947.66;;;1.19;100.00
76746;BME280;65671;49.976;20.038;2023-11-19T05:43:54;97953.25;;;1.26;100.00
76746;BME280;65671;49.976;20.038;2023-11-19T05:46:19;97955.59;;;1.40;100.00
76746;BME280;65671;49.976;20.038;2023-11-19T05:48:45;97950.38;;;1.55;100.00
76746;BME280;65671;49.976;20.038;2023-11-19T05:51:12;97944.03;;;1.48;100.00
76746;BME280;65671;49.976;20.038;2023-11-19T05:53:37;97934.00;;;1.45;100.00
76746;BME280;65671;49.976;20.038;2023-11-19T05:56:03;97928.78;;;1.36;100.00
76746;BME280;65671;49.976;20.038;2023-11-19T05:58:29;97914.03;;;1.27;100.00
76746;BME280;65671;49.976;20.038;2023-11-19T06:00:56;97904.56;;;1.29;100.00
76746;BME280;65671;49.976;20.038;2023-11-19T06:03:22;97899.00;;;1.34;100.00
76746;BME280;65671;49.976;20.038;2023-11-19T06:05:48;97909.13;;;1.29;100.00
76746;BME280;65671;49.976;20.038;2023-11-19T06:08:14;97906.88;;;1.19;100.00
76746;BME280;65671;49.976;20.038;2023-11-19T06:10:40;97903.00;;;1.28;100.00
76746;BME280;65671;49.976;20.038;2023-11-19T06:13:05;97896.78;;;1.24;100.00
76746;BME280;65671;49.976;20.038;2023-11-19T06:15:32;97895.44;;;1.30;100.00
76746;BME280;65671;49.976;20.038;2023-11-19T06:17:58;97902.22;;;1.28;100.00
76746;BME280;65671;49.976;20.038;2023-11-19T06:20:29;97909.25;;;1.32;100.00
76746;BME280;65671;49.976;20.038;2023-11-19T06:22:56;97907.25;;;1.29;100.00
76746;BME280;65671;49.976;20.038;2023-11-19T06:25:22;97910.09;;;1.24;100.00
76746;BME280;65671;49.976;20.038;2023-11-19T06:27:49;97896.78;;;1.48;100.00
76746;BME280;65671;49.976;20.038;2023-11-19T06:30:15;97895.00;;;1.52;100.00
76746;BME280;65671;49.976;20.038;2023-11-19T06:32:41;97902.56;;;1.62;100.00
76746;BME280;65671;49.976;20.038;2023-11-19T06:35:13;97911.13;;;1.68;100.00
76746;BME280;65671;49.976;20.038;2023-11-19T06:37:41;97915.22;;;1.65;100.00
76746;BME280;65671;49.976;20.038;2023-11-19T06:40:07;97907.81;;;1.59;100.00
76746;BME280;65671;49.976;20.038;2023-11-19T06:42:34;97902.56;;;1.62;100.00
76746;BME280;65671;49.976;20.038;2023-11-19T06:45:00;97908.91;;;1.70;100.00
76746;BME280;65671;49.976;20.038;2023-11-19T06:47:26;97911.03;;;1.64;100.00
76746;BME280;65671;49.976;20.038;2023-11-19T06:49:53;97909.44;;;1.76;100.00
76746;BME280;65671;49.976;20.038;2023-11-19T06:52:18;97901.75;;;1.86;100.00
76746;BME280;65671;49.976;20.038;2023-11-19T06:54:44;97887.78;;;1.65;100.00
76746;BME280;65671;49.976;20.038;2023-11-19T06:57:11;97896.97;;;1.92;100.00
76746;BME280;65671;49.976;20.038;2023-11-19T06:59:37;97901.84;;;1.90;100.00
76746;BME280;65671;49.976;20.038;2023-11-19T07:02:02;97883.97;;;1.78;100.00
76746;BME280;65671;49.976;20.038;2023-11-19T07:04:28;97878.09;;;1.73;100.00
76746;BME280;65671;49.976;20.038;2023-11-19T07:06:53;97872.94;;;1.92;100.00
76746;BME280;65671;49.976;20.038;2023-11-19T07:09:19;97863.69;;;1.89;100.00
76746;BME280;65671;49.976;20.038;2023-11-19T07:11:44;97857.47;;;1.97;100.00
76746;BME280;65671;49.976;20.038;2023-11-19T07:14:11;97853.38;;;1.88;100.00
76746;BME280;65671;49.976;20.038;2023-11-19T07:16:36;97852.03;;;1.94;100.00
76746;BME280;65671;49.976;20.038;2023-11-19T07:19:05;97848.25;;;1.95;100.00
76746;BME280;65671;49.976;20.038;2023-11-19T07:21:31;97843.94;;;2.18;100.00
76746;BME280;65671;49.976;20.038;2023-11-19T07:23:58;97839.84;;;2.08;100.00
76746;BME280;65671;49.976;20.038;2023-11-19T07:26:24;97826.81;;;1.79;100.00
76746;BME280;65671;49.976;20.038;2023-11-19T07:28:50;97827.22;;;1.93;100.00
76746;BME280;65671;49.976;20.038;2023-11-19T07:31:16;97817.22;;;1.90;100.00
76746;BME280;65671;49.976;20.038;2023-11-19T07:33:45;97820.38;;;2.08;100.00
76746;BME280;65671;49.976;20.038;2023-11-19T07:36:19;97819.75;;;1.99;100.00
76746;BME280;65671;49.976;20.038;2023-11-19T07:38:54;97819.13;;;2.17;100.00
76746;BME280;65671;49.976;20.038;2023-11-19T07:41:23;97815.56;;;2.41;100.00
76746;BME280;65671;49.976;20.038;2023-11-19T07:43:51;97824.22;;;2.22;100.00
76746;BME280;65671;49.976;20.038;2023-11-19T07:46:17;97834.78;;;2.19;100.00
76746;BME280;65671;49.976;20.038;2023-11-19T07:48:45;97840.53;;;2.33;100.00
76746;BME280;65671;49.976;20.038;2023-11-19T07:51:12;97846.53;;;2.58;100.00
76746;BME280;65671;49.976;20.038;2023-11-19T07:53:38;97845.94;;;2.64;100.00
76746;BME280;65671;49.976;20.038;2023-11-19T07:56:05;97831.72;;;3.07;100.00
76746;BME280;65671;49.976;20.038;2023-11-19T07:58:30;97831.38;;;3.09;100.00
76746;BME280;65671;49.976;20.038;2023-11-19T08:00:56;97830.16;;;2.75;100.00
76746;BME280;65671;49.976;20.038;2023-11-19T08:03:21;97821.28;;;2.71;100.00
76746;BME280;65671;49.976;20.038;2023-11-19T08:05:47;97819.84;;;2.89;100.00
76746;BME280;65671;49.976;20.038;2023-11-19T08:08:12;97822.59;;;2.77;100.00
76746;BME280;65671;49.976;20.038;2023-11-19T08:10:38;97808.69;;;3.18;100.00
76746;BME280;65671;49.976;20.038;2023-11-19T08:13:05;97802.88;;;3.32;100.00
76746;BME280;65671;49.976;20.038;2023-11-19T08:15:31;97801.00;;;3.32;100.00
76746;BME280;65671;49.976;20.038;2023-11-19T08:17:56;97799.28;;;3.24;100.00
76746;BME280;65671;49.976;20.038;2023-11-19T08:20:22;97789.28;;;3.56;100.00
76746;BME280;65671;49.976;20.038;2023-11-19T08:22:49;97799.59;;;3.38;100.00
76746;BME280;65671;49.976;20.038;2023-11-19T08:25:14;97781.44;;;2.97;100.00
76746;BME280;65671;49.976;20.038;2023-11-19T08:27:40;97777.13;;;2.93;100.00
76746;BME280;65671;49.976;20.038;2023-11-19T08:30:05;97769.84;;;3.24;100.00
76746;BME280;65671;49.976;20.038;2023-11-19T08:32:31;97760.06;;;3.32;100.00
76746;BME280;65671;49.976;20.038;2023-11-19T08:34:57;97756.00;;;3.38;100.00
76746;BME280;65671;49.976;20.038;2023-11-19T08:37:22;97755.31;;;3.06;100.00
76746;BME280;65671;49.976;20.038;2023-11-19T08:39:48;97748.69;;;3.19;100.00
76746;BME280;65671;49.976;20.038;2023-11-19T08:42:14;97753.16;;;3.66;100.00
76746;BME280;65671;49.976;20.038;2023-11-19T08:44:40;97764.91;;;3.61;100.00
76746;BME280;65671;49.976;20.038;2023-11-19T08:47:09;97775.00;;;3.68;100.00
76746;BME280;65671;49.976;20.038;2023-11-19T08:49:34;97767.81;;;3.72;100.00
76746;BME280;65671;49.976;20.038;2023-11-19T08:52:00;97764.69;;;3.70;100.00
76746;BME280;65671;49.976;20.038;2023-11-19T08:54:25;97762.91;;;3.39;100.00
76746;BME280;65671;49.976;20.038;2023-11-19T08:56:51;97762.25;;;3.80;100.00
76746;BME280;65671;49.976;20.038;2023-11-19T08:59:16;97757.25;;;3.98;100.00
76746;BME280;65671;49.976;20.038;2023-11-19T09:01:42;97742.66;;;3.96;100.00
76746;BME280;65671;49.976;20.038;2023-11-19T09:04:08;97754.19;;;3.61;100.00
76746;BME280;65671;49.976;20.038;2023-11-19T09:06:35;97750.47;;;3.85;100.00
76746;BME280;65671;49.976;20.038;2023-11-19T09:09:01;97744.22;;;3.77;100.00
76746;BME280;65671;49.976;20.038;2023-11-19T09:11:28;97749.69;;;3.65;100.00
76746;BME280;65671;49.976;20.038;2023-11-19T09:13:54;97740.94;;;3.87;100.00
76746;BME280;65671;49.976;20.038;2023-11-19T09:16:20;97735.84;;;4.02;100.00
76746;BME280;65671;49.976;20.038;2023-11-19T09:18:45;97742.47;;;4.08;100.00
76746;BME280;65671;49.976;20.038;2023-11-19T09:21:11;97738.19;;;4.03;100.00
76746;BME280;65671;49.976;20.038;2023-11-19T09:23:37;97724.97;;;4.14;100.00
76746;BME280;65671;49.976;20.038;2023-11-19T09:26:05;97716.44;;;3.85;100.00
76746;BME280;65671;49.976;20.038;2023-11-19T09:28:31;97701.22;;;3.70;100.00
76746;BME280;65671;49.976;20.038;2023-11-19T09:30:56;97702.88;;;3.98;100.00
76746;BME280;65671;49.976;20.038;2023-11-19T09:33:22;97697.66;;;4.05;100.00
76746;BME280;65671;49.976;20.038;2023-11-19T09:35:48;97684.16;;;3.78;100.00
76746;BME280;65671;49.976;20.038;2023-11-19T09:38:16;97677.97;;;3.74;100.00
76746;BME280;65671;49.976;20.038;2023-11-19T09:40:42;97675.31;;;3.36;100.00
76746;BME280;65671;49.976;20.038;2023-11-19T09:43:08;97666.50;;;3.35;100.00
76746;BME280;65671;49.976;20.038;2023-11-19T09:45:47;97670.66;;;3.52;100.00
76746;BME280;65671;49.976;20.038;2023-11-19T09:48:19;97665.22;;;3.68;100.00
76746;BME280;65671;49.976;20.038;2023-11-19T09:50:48;97661.56;;;3.99;100.00
76746;BME280;65671;49.976;20.038;2023-11-19T09:53:14;97659.44;;;4.08;100.00
76746;BME280;65671;49.976;20.038;2023-11-19T09:55:40;97667.06;;;4.51;100.00
76746;BME280;65671;49.976;20.038;2023-11-19T09:58:07;97654.66;;;4.43;100.00
76746;BME280;65671;49.976;20.038;2023-11-19T10:00:33;97659.63;;;4.41;100.00
76746;BME280;65671;49.976;20.038;2023-11-19T10:02:59;97650.50;;;4.23;100.00
76746;BME280;65671;49.976;20.038;2023-11-19T10:05:25;97651.75;;;4.29;100.00
76746;BME280;65671;49.976;20.038;2023-11-19T10:07:52;97648.97;;;4.71;100.00
76746;BME280;65671;49.976;20.038;2023-11-19T10:10:18;97647.94;;;4.79;100.00
76746;BME280;65671;49.976;20.038;2023-11-19T10:12:47;97648.56;;;4.69;100.00
76746;BME280;65671;49.976;20.038;2023-11-19T10:15:24;97636.63;;;4.92;100.00
76746;BME280;65671;49.976;20.038;2023-11-19T10:17:51;97628.22;;;4.68;100.00
76746;BME280;65671;49.976;20.038;2023-11-19T10:20:17;97618.59;;;5.19;100.00
76746;BME280;65671;49.976;20.038;2023-11-19T10:22:42;97614.81;;;4.94;100.00
76746;BME280;65671;49.976;20.038;2023-11-19T10:25:25;97608.59;;;5.20;100.00
76746;BME280;65671;49.976;20.038;2023-11-19T10:27:55;97604.00;;;5.20;100.00
76746;BME280;65671;49.976;20.038;2023-11-19T10:30:22;97589.41;;;5.18;100.00
76746;BME280;65671;49.976;20.038;2023-11-19T10:33:04;97587.31;;;5.00;100.00
76746;BME280;65671;49.976;20.038;2023-11-19T10:38:25;97593.41;;;4.97;100.00
76746;BME280;65671;49.976;20.038;2023-11-19T10:40:52;97588.19;;;5.12;100.00
76746;BME280;65671;49.976;20.038;2023-11-19T10:43:19;97583.56;;;5.42;100.00
76746;BME280;65671;49.976;20.038;2023-11-19T10:45:45;97576.88;;;5.25;100.00
76746;BME280;65671;49.976;20.038;2023-11-19T10:48:11;97575.09;;;5.06;100.00
76746;BME280;65671;49.976;20.038;2023-11-19T10:50:38;97561.00;;;5.13;100.00
76746;BME280;65671;49.976;20.038;2023-11-19T10:53:05;97550.72;;;5.19;100.00
76746;BME280;65671;49.976;20.038;2023-11-19T10:55:36;97549.13;;;5.14;100.00
76746;BME280;65671;49.976;20.038;2023-11-19T10:58:08;97526.28;;;5.27;98.10
76746;BME280;65671;49.976;20.038;2023-11-19T11:00:43;97528.88;;;5.20;99.96
76746;BME280;65671;49.976;20.038;2023-11-19T11:03:21;97516.16;;;5.14;100.00
76746;BME280;65671;49.976;20.038;2023-11-19T11:05:51;97521.25;;;5.26;100.00
76746;BME280;65671;49.976;20.038;2023-11-19T11:08:19;97517.88;;;5.32;100.00
76746;BME280;65671;49.976;20.038;2023-11-19T11:10:47;97520.16;;;5.30;100.00
76746;BME280;65671;49.976;20.038;2023-11-19T11:13:14;97497.44;;;5.21;99.70
76746;BME280;65671;49.976;20.038;2023-11-19T11:15:40;97498.66;;;5.27;100.00
76746;BME280;65671;49.976;20.038;2023-11-19T11:18:09;97493.38;;;5.34;99.16
76746;BME280;65671;49.976;20.038;2023-11-19T11:20:35;97492.28;;;5.01;100.00
76746;BME280;65671;49.976;20.038;2023-11-19T11:29:16;97472.06;;;5.15;100.00
76746;BME280;65671;49.976;20.038;2023-11-19T11:35:15;97470.13;;;5.12;100.00
76746;BME280;65671;49.976;20.038;2023-11-19T11:37:39;97458.31;;;5.16;100.00
76746;BME280;65671;49.976;20.038;2023-11-19T11:40:14;97449.53;;;5.23;100.00
76746;BME280;65671;49.976;20.038;2023-11-19T11:42:41;97449.53;;;5.23;100.00
76746;BME280;65671;49.976;20.038;2023-11-19T11:50:16;97414.81;;;5.00;100.00
76746;BME280;65671;49.976;20.038;2023-11-19T11:58:31;97427.16;;;4.71;100.00
76746;BME280;65671;49.976;20.038;2023-11-19T12:00:57;97427.84;;;4.98;100.00
76746;BME280;65671;49.976;20.038;2023-11-19T12:03:23;97421.50;;;4.80;100.00
76746;BME280;65671;49.976;20.038;2023-11-19T12:05:52;97430.56;;;4.68;100.00
76746;BME280;65671;49.976;20.038;2023-11-19T12:08:19;97413.13;;;4.85;100.00
76746;BME280;65671;49.976;20.038;2023-11-19T12:10:50;97416.06;;;4.73;100.00
76746;BME280;65671;49.976;20.038;2023-11-19T12:13:17;97395.09;;;4.45;100.00
76746;BME280;65671;49.976;20.038;2023-11-19T12:18:40;97400.69;;;4.66;100.00
76746;BME280;65671;49.976;20.038;2023-11-19T12:21:06;97394.97;;;4.38;100.00
76746;BME280;65671;49.976;20.038;2023-11-19T12:23:56;97394.53;;;4.32;100.00
76746;BME280;65671;49.976;20.038;2023-11-19T12:26:56;97394.59;;;4.36;100.00
76746;BME280;65671;49.976;20.038;2023-11-19T12:29:41;97385.69;;;3.99;100.00
76746;BME280;65671;49.976;20.038;2023-11-19T12:32:17;97386.16;;;4.34;100.00
76746;BME280;65671;49.976;20.038;2023-11-19T12:35:10;97375.81;;;4.36;100.00
76746;BME280;65671;49.976;20.038;2023-11-19T12:37:47;97335.03;;;3.86;100.00
76746;BME280;65671;49.976;20.038;2023-11-19T12:40:28;97362.28;;;4.22;100.00
76746;BME280;65671;49.976;20.038;2023-11-19T12:42:57;97354.91;;;3.85;100.00
76746;BME280;65671;49.976;20.038;2023-11-19T12:45:36;97344.91;;;3.82;100.00
76746;BME280;65671;49.976;20.038;2023-11-19T12:48:07;97349.56;;;3.59;100.00
76746;BME280;65671;49.976;20.038;2023-11-19T12:50:52;97323.41;;;3.49;100.00
76746;BME280;65671;49.976;20.038;2023-11-19T12:56:52;97337.72;;;3.34;100.00
76746;BME280;65671;49.976;20.038;2023-11-19T13:03:00;97320.03;;;3.26;100.00
76746;BME280;65671;49.976;20.038;2023-11-19T13:05:37;97331.78;;;3.44;100.00
76746;BME280;65671;49.976;20.038;2023-11-19T13:08:07;97291.88;;;2.83;100.00
76746;BME280;65671;49.976;20.038;2023-11-19T13:13:18;97312.75;;;3.00;100.00
76746;BME280;65671;49.976;20.038;2023-11-19T13:15:47;97309.97;;;3.19;100.00
76746;BME280;65671;49.976;20.038;2023-11-19T13:18:20;97302.53;;;3.32;100.00
76746;BME280;65671;49.976;20.038;2023-11-19T13:20:50;97291.22;;;3.16;100.00
76746;BME280;65671;49.976;20.038;2023-11-19T13:23:21;97302.94;;;3.08;100.00
76746;BME280;65671;49.976;20.038;2023-11-19T13:25:54;97290.19;;;2.75;100.00
76746;BME280;65671;49.976;20.038;2023-11-19T13:28:25;97295.16;;;2.99;100.00